sensor_id;sensor_type;location;lat;lon;timestamp;temperature;humidity
54846;DHT22;53889;50.084;8.646;2024-03-23T00:54:09;11.20;99.90
54846;DHT22;53889;50.084;8.646;2024-03-23T00:56:37;10.20;99.90
54846;DHT22;53889;50.084;8.646;2024-03-23T00:59:03;10.90;99.90
54846;DHT22;53889;50.084;8.646;2024-03-23T01:01:30;10.90;99.90
54846;DHT22;53889;50.084;8.646;2024-03-23T01:03:56;10.60;99.90
54846;DHT22;53889;50.084;8.646;2024-03-23T01:06:28;10.80;99.90
54846;DHT22;53889;50.084;8.646;2024-03-23T01:08:54;10.20;99.90
54846;DHT22;53889;50.084;8.646;2024-03-23T01:11:21;11.20;99.90
54846;DHT22;53889;50.084;8.646;2024-03-23T01:13:47;12.70;99.90
54846;DHT22;53889;50.084;8.646;2024-03-23T01:16:14;10.30;99.90
54846;DHT22;53889;50.084;8.646;2024-03-23T01:18:40;9.40;99.90
54846;DHT22;53889;50.084;8.646;2024-03-23T01:21:07;10.50;99.90
54846;DHT22;53889;50.084;8.646;2024-03-23T01:23:34;10.30;99.90
54846;DHT22;53889;50.084;8.646;2024-03-23T01:26:10;10.30;99.90
54846;DHT22;53889;50.084;8.646;2024-03-23T01:29:16;11.20;99.90
54846;DHT22;53889;50.084;8.646;2024-03-23T01:31:52;10.30;99.90
54846;DHT22;53889;50.084;8.646;2024-03-23T01:34:21;10.30;99.90
54846;DHT22;53889;50.084;8.646;2024-03-23T01:36:50;10.30;99.90
54846;DHT22;53889;50.084;8.646;2024-03-23T01:39:20;10.30;99.90
54846;DHT22;53889;50.084;8.646;2024-03-23T01:41:48;10.40;99.90
54846;DHT22;53889;50.084;8.646;2024-03-23T01:44:14;11.30;99.90
54846;DHT22;53889;50.084;8.646;2024-03-23T01:46:42;10.30;99.90
54846;DHT22;53889;50.084;8.646;2024-03-23T01:49:12;11.20;99.90
54846;DHT22;53889;50.084;8.646;2024-03-23T01:51:39;10.00;99.90
54846;DHT22;53889;50.084;8.646;2024-03-23T01:54:07;11.00;99.90
54846;DHT22;53889;50.084;8.646;2024-03-23T01:56:36;9.70;99.90
54846;DHT22;53889;50.084;8.646;2024-03-23T01:59:02;9.10;99.90
54846;DHT22;53889;50.084;8.646;2024-03-23T02:01:30;10.20;99.90
54846;DHT22;53889;50.084;8.646;2024-03-23T02:03:56;9.50;99.90
54846;DHT22;53889;50.084;8.646;2024-03-23T02:06:24;9.90;99.90
54846;DHT22;53889;50.084;8.646;2024-03-23T02:08:50;12.10;99.90
54846;DHT22;53889;50.084;8.646;2024-03-23T02:11:18;9.30;99.90
54846;DHT22;53889;50.084;8.646;2024-03-23T02:13:45;9.70;99.90
54846;DHT22;53889;50.084;8.646;2024-03-23T02:16:12;10.90;99.90
54846;DHT22;53889;50.084;8.646;2024-03-23T02:18:40;10.40;99.90
54846;DHT22;53889;50.084;8.646;2024-03-23T02:21:07;11.90;99.90
54846;DHT22;53889;50.084;8.646;2024-03-23T02:23:35;12.10;99.90
54846;DHT22;53889;50.084;8.646;2024-03-23T02:26:02;8.20;99.90
54846;DHT22;53889;50.084;8.646;2024-03-23T02:28:28;10.00;99.90
54846;DHT22;53889;50.084;8.646;2024-03-23T02:30:55;12.10;99.90
54846;DHT22;53889;50.084;8.646;2024-03-23T02:33:21;11.20;99.90
54846;DHT22;53889;50.084;8.646;2024-03-23T02:35:49;8.80;99.90
54846;DHT22;53889;50.084;8.646;2024-03-23T02:38:16;9.70;99.90
54846;DHT22;53889;50.084;8.646;2024-03-23T02:40:44;9.00;99.90
54846;DHT22;53889;50.084;8.646;2024-03-23T02:43:10;9.70;99.90
54846;DHT22;53889;50.084;8.646;2024-03-23T02:45:38;10.10;99.90
54846;DHT22;53889;50.084;8.646;2024-03-23T02:48:06;10.70;99.90
54846;DHT22;53889;50.084;8.646;2024-03-23T02:50:32;10.90;99.90
54846;DHT22;53889;50.084;8.646;2024-03-23T02:53:00;9.30;99.90
54846;DHT22;53889;50.084;8.646;2024-03-23T02:55:26;10.00;99.90
54846;DHT22;53889;50.084;8.646;2024-03-23T02:57:55;9.00;99.90
54846;DHT22;53889;50.084;8.646;2024-03-23T03:00:21;12.10;99.90
54846;DHT22;53889;50.084;8.646;2024-03-23T03:02:48;9.50;99.90
54846;DHT22;53889;50.084;8.646;2024-03-23T03:05:15;9.30;99.90
54846;DHT22;53889;50.084;8.646;2024-03-23T03:07:43;9.40;99.90
54846;DHT22;53889;50.084;8.646;2024-03-23T03:10:09;9.30;99.90
54846;DHT22;53889;50.084;8.646;2024-03-23T03:12:37;10.80;99.90
54846;DHT22;53889;50.084;8.646;2024-03-23T03:15:05;10.90;99.90
54846;DHT22;53889;50.084;8.646;2024-03-23T03:17:33;9.30;99.90
54846;DHT22;53889;50.084;8.646;2024-03-23T03:20:00;9.60;99.90
54846;DHT22;53889;50.084;8.646;2024-03-23T03:22:33;8.20;99.90
54846;DHT22;53889;50.084;8.646;2024-03-23T03:25:05;9.70;99.90
54846;DHT22;53889;50.084;8.646;2024-03-23T03:27:35;9.20;99.90
54846;DHT22;53889;50.084;8.646;2024-03-23T03:30:01;10.40;99.90
54846;DHT22;53889;50.084;8.646;2024-03-23T03:32:30;9.20;99.90
54846;DHT22;53889;50.084;8.646;2024-03-23T03:34:56;9.30;99.90
54846;DHT22;53889;50.084;8.646;2024-03-23T03:37:24;9.50;99.90
54846;DHT22;53889;50.084;8.646;2024-03-23T03:39:50;10.70;99.90
54846;DHT22;53889;50.084;8.646;2024-03-23T03:42:18;10.60;99.90
54846;DHT22;53889;50.084;8.646;2024-03-23T03:44:44;10.80;99.90
54846;DHT22;53889;50.084;8.646;2024-03-23T03:47:12;9.30;99.90
54846;DHT22;53889;50.084;8.646;2024-03-23T03:49:39;9.80;99.90
54846;DHT22;53889;50.084;8.646;2024-03-23T03:52:08;9.30;99.90
54846;DHT22;53889;50.084;8.646;2024-03-23T03:54:34;9.70;99.90
54846;DHT22;53889;50.084;8.646;2024-03-23T03:57:01;9.40;99.90
54846;DHT22;53889;50.084;8.646;2024-03-23T03:59:32;10.20;99.90
54846;DHT22;53889;50.084;8.646;2024-03-23T04:02:01;9.30;99.90
54846;DHT22;53889;50.084;8.646;2024-03-23T04:04:27;8.80;99.90
54846;DHT22;53889;50.084;8.646;2024-03-23T04:07:02;9.80;99.90
54846;DHT22;53889;50.084;8.646;2024-03-23T04:09:32;8.50;99.90
54846;DHT22;53889;50.084;8.646;2024-03-23T04:12:00;9.20;99.90
54846;DHT22;53889;50.084;8.646;2024-03-23T04:14:26;9.70;99.90
54846;DHT22;53889;50.084;8.646;2024-03-23T04:16:56;9.50;99.90
54846;DHT22;53889;50.084;8.646;2024-03-23T04:19:22;9.90;99.90
54846;DHT22;53889;50.084;8.646;2024-03-23T04:22:03;11.70;99.90
54846;DHT22;53889;50.084;8.646;2024-03-23T04:25:08;10.40;99.90
54846;DHT22;53889;50.084;8.646;2024-03-23T04:28:29;9.20;99.90
54846;DHT22;53889;50.084;8.646;2024-03-23T04:34:44;9.20;99.90
54846;DHT22;53889;50.084;8.646;2024-03-23T04:37:47;8.70;99.90
54846;DHT22;53889;50.084;8.646;2024-03-23T04:40:36;10.80;99.90
54846;DHT22;53889;50.084;8.646;2024-03-23T04:43:08;8.10;99.90
54846;DHT22;53889;50.084;8.646;2024-03-23T04:45:35;8.50;99.90
54846;DHT22;53889;50.084;8.646;2024-03-23T04:48:02;8.50;99.90
54846;DHT22;53889;50.084;8.646;2024-03-23T04:50:30;6.70;99.90
54846;DHT22;53889;50.084;8.646;2024-03-23T04:52:57;9.60;99.90
54846;DHT22;53889;50.084;8.646;2024-03-23T04:55:24;9.60;99.90
54846;DHT22;53889;50.084;8.646;2024-03-23T04:57:52;8.50;99.90
54846;DHT22;53889;50.084;8.646;2024-03-23T05:00:25;8.40;99.90
54846;DHT22;53889;50.084;8.646;2024-03-23T05:06:47;8.40;99.90
54846;DHT22;53889;50.084;8.646;2024-03-23T05:12:57;6.90;99.90
54846;DHT22;53889;50.084;8.646;2024-03-23T05:15:42;10.00;99.90
54846;DHT22;53889;50.084;8.646;2024-03-23T06:04:37;9.00;99.90
54846;DHT22;53889;50.084;8.646;2024-03-23T06:08:15;8.10;99.90
54846;DHT22;53889;50.084;8.646;2024-03-23T06:38:45;8.10;99.90
54846;DHT22;53889;50.084;8.646;2024-03-23T06:41:20;8.90;99.90
54846;DHT22;53889;50.084;8.646;2024-03-23T06:43:49;7.70;99.90
54846;DHT22;53889;50.084;8.646;2024-03-23T06:49:28;8.10;99.90
54846;DHT22;53889;50.084;8.646;2024-03-23T06:51:59;8.10;99.90
54846;DHT22;53889;50.084;8.646;2024-03-23T06:54:36;8.40;99.90
54846;DHT22;53889;50.084;8.646;2024-03-23T06:57:48;8.00;99.90
54846;DHT22;53889;50.084;8.646;2024-03-23T07:00:39;7.90;99.90
54846;DHT22;53889;50.084;8.646;2024-03-23T07:03:20;6.10;99.90
54846;DHT22;53889;50.084;8.646;2024-03-23T07:06:08;6.50;99.90
54846;DHT22;53889;50.084;8.646;2024-03-23T07:09:00;8.20;99.90
54846;DHT22;53889;50.084;8.646;2024-03-23T07:11:35;7.20;99.90
54846;DHT22;53889;50.084;8.646;2024-03-23T07:14:23;8.00;99.90
54846;DHT22;53889;50.084;8.646;2024-03-23T07:17:12;6.30;99.90
54846;DHT22;53889;50.084;8.646;2024-03-23T07:19:59;7.90;99.90
54846;DHT22;53889;50.084;8.646;2024-03-23T07:23:00;8.80;99.90
54846;DHT22;53889;50.084;8.646;2024-03-23T07:26:05;7.90;99.90
54846;DHT22;53889;50.084;8.646;2024-03-23T07:28:52;7.90;99.90
54846;DHT22;53889;50.084;8.646;2024-03-23T07:31:56;8.00;99.90
54846;DHT22;53889;50.084;8.646;2024-03-23T07:35:27;8.00;99.90
54846;DHT22;53889;50.084;8.646;2024-03-23T07:38:43;7.50;99.90
54846;DHT22;53889;50.084;8.646;2024-03-23T07:41:11;9.40;99.90
54846;DHT22;53889;50.084;8.646;2024-03-23T07:43:38;8.40;99.90
54846;DHT22;53889;50.084;8.646;2024-03-23T07:46:09;8.90;99.90
54846;DHT22;53889;50.084;8.646;2024-03-23T07:48:41;10.00;99.90
54846;DHT22;53889;50.084;8.646;2024-03-23T07:51:10;8.10;99.90
54846;DHT22;53889;50.084;8.646;2024-03-23T07:53:42;8.00;99.90
54846;DHT22;53889;50.084;8.646;2024-03-23T07:56:12;8.20;99.90
54846;DHT22;53889;50.084;8.646;2024-03-23T07:58:38;8.70;99.90
54846;DHT22;53889;50.084;8.646;2024-03-23T08:01:07;9.90;99.90
54846;DHT22;53889;50.084;8.646;2024-03-23T08:03:35;7.90;99.90
54846;DHT22;53889;50.084;8.646;2024-03-23T08:06:10;9.30;99.90
54846;DHT22;53889;50.084;8.646;2024-03-23T08:08:38;8.50;99.90
54846;DHT22;53889;50.084;8.646;2024-03-23T08:11:19;9.10;99.90
54846;DHT22;53889;50.084;8.646;2024-03-23T08:14:17;10.70;99.90
54846;DHT22;53889;50.084;8.646;2024-03-23T08:16:45;8.80;99.90
54846;DHT22;53889;50.084;8.646;2024-03-23T08:19:21;10.40;99.90
54846;DHT22;53889;50.084;8.646;2024-03-23T08:21:55;8.80;99.90
54846;DHT22;53889;50.084;8.646;2024-03-23T08:24:23;9.00;99.90
54846;DHT22;53889;50.084;8.646;2024-03-23T08:26:56;9.10;99.90
54846;DHT22;53889;50.084;8.646;2024-03-23T08:29:48;8.80;99.90
54846;DHT22;53889;50.084;8.646;2024-03-23T08:32:24;7.90;99.90
54846;DHT22;53889;50.084;8.646;2024-03-23T08:34:52;9.20;99.90
54846;DHT22;53889;50.084;8.646;2024-03-23T08:37:19;9.80;99.90
54846;DHT22;53889;50.084;8.646;2024-03-23T08:39:45;11.90;99.90
54846;DHT22;53889;50.084;8.646;2024-03-23T08:42:12;12.00;99.20
54846;DHT22;53889;50.084;8.646;2024-03-23T08:44:38;10.20;99.30
54846;DHT22;53889;50.084;8.646;2024-03-23T08:47:05;10.80;99.40
54846;DHT22;53889;50.084;8.646;2024-03-23T08:49:31;10.20;99.40
54846;DHT22;53889;50.084;8.646;2024-03-23T08:51:59;10.40;99.40
54846;DHT22;53889;50.084;8.646;2024-03-23T08:54:25;9.80;99.90
54846;DHT22;53889;50.084;8.646;2024-03-23T08:56:53;10.00;99.70
54846;DHT22;53889;50.084;8.646;2024-03-23T08:59:19;10.00;99.90
54846;DHT22;53889;50.084;8.646;2024-03-23T09:01:46;11.10;99.50
54846;DHT22;53889;50.084;8.646;2024-03-23T09:04:12;12.70;97.30
54846;DHT22;53889;50.084;8.646;2024-03-23T09:06:42;13.00;96.00
54846;DHT22;53889;50.084;8.646;2024-03-23T09:09:09;14.00;96.90
54846;DHT22;53889;50.084;8.646;2024-03-23T09:11:36;12.30;96.40
54846;DHT22;53889;50.084;8.646;2024-03-23T09:14:03;11.20;96.80
54846;DHT22;53889;50.084;8.646;2024-03-23T09:16:30;13.10;97.50
54846;DHT22;53889;50.084;8.646;2024-03-23T09:18:56;10.30;98.00
54846;DHT22;53889;50.084;8.646;2024-03-23T09:21:23;10.20;96.40
54846;DHT22;53889;50.084;8.646;2024-03-23T09:23:49;11.80;96.80
54846;DHT22;53889;50.084;8.646;2024-03-23T09:26:17;11.20;95.60
54846;DHT22;53889;50.084;8.646;2024-03-23T09:28:43;13.60;96.50
54846;DHT22;53889;50.084;8.646;2024-03-23T09:31:10;13.40;95.10
54846;DHT22;53889;50.084;8.646;2024-03-23T09:33:39;13.80;93.80
54846;DHT22;53889;50.084;8.646;2024-03-23T09:36:07;14.00;92.60
54846;DHT22;53889;50.084;8.646;2024-03-23T09:38:33;13.40;93.10
54846;DHT22;53889;50.084;8.646;2024-03-23T09:41:00;14.30;92.50
54846;DHT22;53889;50.084;8.646;2024-03-23T09:43:27;14.30;92.30
54846;DHT22;53889;50.084;8.646;2024-03-23T09:45:54;14.80;91.50
54846;DHT22;53889;50.084;8.646;2024-03-23T09:48:20;14.70;90.80
54846;DHT22;53889;50.084;8.646;2024-03-23T09:50:47;15.10;88.30
54846;DHT22;53889;50.084;8.646;2024-03-23T09:53:14;15.20;86.40
54846;DHT22;53889;50.084;8.646;2024-03-23T09:55:43;14.20;88.60
54846;DHT22;53889;50.084;8.646;2024-03-23T09:58:12;13.40;90.70
54846;DHT22;53889;50.084;8.646;2024-03-23T10:00:40;12.50;91.40
54846;DHT22;53889;50.084;8.646;2024-03-23T10:03:06;11.90;91.80
54846;DHT22;53889;50.084;8.646;2024-03-23T10:05:34;12.70;92.20
54846;DHT22;53889;50.084;8.646;2024-03-23T10:08:00;12.80;92.10
54846;DHT22;53889;50.084;8.646;2024-03-23T10:10:27;11.70;91.50
54846;DHT22;53889;50.084;8.646;2024-03-23T10:12:53;11.30;91.80
54846;DHT22;53889;50.084;8.646;2024-03-23T10:15:23;11.70;90.90
54846;DHT22;53889;50.084;8.646;2024-03-23T10:17:52;11.60;90.70
54846;DHT22;53889;50.084;8.646;2024-03-23T10:20:21;12.30;90.30
54846;DHT22;53889;50.084;8.646;2024-03-23T10:22:48;13.80;89.90
54846;DHT22;53889;50.084;8.646;2024-03-23T10:25:16;15.30;88.80
54846;DHT22;53889;50.084;8.646;2024-03-23T10:27:41;14.60;86.60
54846;DHT22;53889;50.084;8.646;2024-03-23T10:30:10;14.10;86.00
54846;DHT22;53889;50.084;8.646;2024-03-23T10:32:37;12.90;88.10
54846;DHT22;53889;50.084;8.646;2024-03-23T10:35:17;12.80;89.30
54846;DHT22;53889;50.084;8.646;2024-03-23T10:37:49;11.90;90.60
54846;DHT22;53889;50.084;8.646;2024-03-23T10:44:08;12.30;90.40
54846;DHT22;53889;50.084;8.646;2024-03-23T10:46:35;15.50;87.20
54846;DHT22;53889;50.084;8.646;2024-03-23T10:49:03;13.80;86.00
54846;DHT22;53889;50.084;8.646;2024-03-23T10:51:32;13.80;87.50
54846;DHT22;53889;50.084;8.646;2024-03-23T10:53:59;12.50;91.00
54846;DHT22;53889;50.084;8.646;2024-03-23T10:56:30;11.00;92.60
54846;DHT22;53889;50.084;8.646;2024-03-23T10:59:00;13.20;95.50
54846;DHT22;53889;50.084;8.646;2024-03-23T11:01:29;10.00;96.60
54846;DHT22;53889;50.084;8.646;2024-03-23T11:03:56;9.60;97.50
54846;DHT22;53889;50.084;8.646;2024-03-23T11:06:35;7.40;97.60
54846;DHT22;53889;50.084;8.646;2024-03-23T11:09:02;7.90;98.50
54846;DHT22;53889;50.084;8.646;2024-03-23T11:11:29;8.60;98.10
54846;DHT22;53889;50.084;8.646;2024-03-23T11:13:58;8.60;97.40
54846;DHT22;53889;50.084;8.646;2024-03-23T11:16:27;9.90;99.00
54846;DHT22;53889;50.084;8.646;2024-03-23T11:19:33;8.40;98.50
54846;DHT22;53889;50.084;8.646;2024-03-23T11:22:02;8.40;97.60
54846;DHT22;53889;50.084;8.646;2024-03-23T11:24:35;8.40;97.80
54846;DHT22;53889;50.084;8.646;2024-03-23T11:27:15;8.50;98.40
54846;DHT22;53889;50.084;8.646;2024-03-23T11:29:41;8.10;98.10
54846;DHT22;53889;50.084;8.646;2024-03-23T11:32:10;8.60;98.00
54846;DHT22;53889;50.084;8.646;2024-03-23T11:34:39;8.40;98.10
54846;DHT22;53889;50.084;8.646;2024-03-23T11:37:08;9.70;98.40
54846;DHT22;53889;50.084;8.646;2024-03-23T11:39:34;8.30;98.50
54846;DHT22;53889;50.084;8.646;2024-03-23T11:42:03;7.20;98.40
54846;DHT22;53889;50.084;8.646;2024-03-23T11:44:29;8.60;98.70
54846;DHT22;53889;50.084;8.646;2024-03-23T11:47:07;9.40;99.50
54846;DHT22;53889;50.084;8.646;2024-03-23T11:49:33;8.80;99.30
54846;DHT22;53889;50.084;8.646;2024-03-23T11:52:07;8.70;98.70
54846;DHT22;53889;50.084;8.646;2024-03-23T11:54:33;6.90;98.10
54846;DHT22;53889;50.084;8.646;2024-03-23T11:57:02;8.70;98.40
54846;DHT22;53889;50.084;8.646;2024-03-23T11:59:34;9.10;99.50
54846;DHT22;53889;50.084;8.646;2024-03-23T12:02:06;10.50;98.60
54846;DHT22;53889;50.084;8.646;2024-03-23T12:04:35;10.10;95.10
54846;DHT22;53889;50.084;8.646;2024-03-23T12:07:12;12.40;93.60
54846;DHT22;53889;50.084;8.646;2024-03-23T12:09:38;12.80;92.80
54846;DHT22;53889;50.084;8.646;2024-03-23T12:12:08;13.00;92.80
54846;DHT22;53889;50.084;8.646;2024-03-23T12:14:35;12.90;91.50
54846;DHT22;53889;50.084;8.646;2024-03-23T12:17:12;13.00;91.80
54846;DHT22;53889;50.084;8.646;2024-03-23T12:19:39;13.80;90.90
54846;DHT22;53889;50.084;8.646;2024-03-23T12:22:07;14.70;89.40
54846;DHT22;53889;50.084;8.646;2024-03-23T12:24:35;14.40;87.60
54846;DHT22;53889;50.084;8.646;2024-03-23T12:27:02;14.30;86.10
54846;DHT22;53889;50.084;8.646;2024-03-23T12:29:30;13.80;89.30
54846;DHT22;53889;50.084;8.646;2024-03-23T12:31:59;14.40;87.00
54846;DHT22;53889;50.084;8.646;2024-03-23T12:34:25;14.30;85.50
54846;DHT22;53889;50.084;8.646;2024-03-23T12:36:52;14.50;85.50
54846;DHT22;53889;50.084;8.646;2024-03-23T12:39:18;14.60;84.10
54846;DHT22;53889;50.084;8.646;2024-03-23T12:41:47;14.50;84.00
54846;DHT22;53889;50.084;8.646;2024-03-23T12:44:13;14.20;83.90
54846;DHT22;53889;50.084;8.646;2024-03-23T12:46:41;14.40;84.30
54846;DHT22;53889;50.084;8.646;2024-03-23T12:49:07;15.00;83.20
54846;DHT22;53889;50.084;8.646;2024-03-23T12:51:34;14.90;81.20
54846;DHT22;53889;50.084;8.646;2024-03-23T12:54:00;14.20;83.50
54846;DHT22;53889;50.084;8.646;2024-03-23T12:56:27;14.70;82.50
54846;DHT22;53889;50.084;8.646;2024-03-23T12:58:55;13.50;85.00
54846;DHT22;53889;50.084;8.646;2024-03-23T13:01:22;13.50;83.80
54846;DHT22;53889;50.084;8.646;2024-03-23T13:03:48;13.50;84.80
54846;DHT22;53889;50.084;8.646;2024-03-23T13:06:15;13.40;85.60
54846;DHT22;53889;50.084;8.646;2024-03-23T13:08:41;13.00;84.90
54846;DHT22;53889;50.084;8.646;2024-03-23T13:11:10;12.80;86.10
54846;DHT22;53889;50.084;8.646;2024-03-23T13:13:36;12.50;86.30
54846;DHT22;53889;50.084;8.646;2024-03-23T13:16:04;12.30;86.80
54846;DHT22;53889;50.084;8.646;2024-03-23T13:18:31;11.90;89.60
54846;DHT22;53889;50.084;8.646;2024-03-23T13:20:58;11.30;91.60
54846;DHT22;53889;50.084;8.646;2024-03-23T13:23:24;10.50;93.40
54846;DHT22;53889;50.084;8.646;2024-03-23T13:25:55;9.80;96.70
54846;DHT22;53889;50.084;8.646;2024-03-23T13:28:21;9.10;99.30
54846;DHT22;53889;50.084;8.646;2024-03-23T13:30:52;8.70;99.90
54846;DHT22;53889;50.084;8.646;2024-03-23T13:33:19;8.30;99.90
54846;DHT22;53889;50.084;8.646;2024-03-23T13:35:49;8.20;99.90
54846;DHT22;53889;50.084;8.646;2024-03-23T13:38:15;8.30;99.90
54846;DHT22;53889;50.084;8.646;2024-03-23T13:40:50;8.10;99.90
54846;DHT22;53889;50.084;8.646;2024-03-23T13:43:16;8.30;99.90
54846;DHT22;53889;50.084;8.646;2024-03-23T13:45:43;8.70;99.90
54846;DHT22;53889;50.084;8.646;2024-03-23T13:48:09;8.90;99.90
54846;DHT22;53889;50.084;8.646;2024-03-23T13:50:38;9.20;99.90
54846;DHT22;53889;50.084;8.646;2024-03-23T13:53:03;9.50;99.90
54846;DHT22;53889;50.084;8.646;2024-03-23T13:55:31;9.80;99.90
54846;DHT22;53889;50.084;8.646;2024-03-23T13:57:57;9.80;99.90
54846;DHT22;53889;50.084;8.646;2024-03-23T14:00:24;10.00;99.90
54846;DHT22;53889;50.084;8.646;2024-03-23T14:02:49;10.10;99.90
54846;DHT22;53889;50.084;8.646;2024-03-23T14:05:16;10.20;99.90
54846;DHT22;53889;50.084;8.646;2024-03-23T14:07:44;10.10;99.90
54846;DHT22;53889;50.084;8.646;2024-03-23T14:10:11;10.20;99.90
54846;DHT22;53889;50.084;8.646;2024-03-23T14:12:37;10.10;99.90
54846;DHT22;53889;50.084;8.646;2024-03-23T14:15:05;9.80;99.90
54846;DHT22;53889;50.084;8.646;2024-03-23T14:17:31;9.60;99.90
54846;DHT22;53889;50.084;8.646;2024-03-23T14:19:58;9.70;99.90
54846;DHT22;53889;50.084;8.646;2024-03-23T14:22:26;9.60;99.90
54846;DHT22;53889;50.084;8.646;2024-03-23T14:24:54;9.30;99.90
54846;DHT22;53889;50.084;8.646;2024-03-23T14:27:20;9.40;99.90
54846;DHT22;53889;50.084;8.646;2024-03-23T14:29:48;9.50;99.90
54846;DHT22;53889;50.084;8.646;2024-03-23T14:32:14;9.40;99.80
54846;DHT22;53889;50.084;8.646;2024-03-23T14:34:41;9.40;99.90
54846;DHT22;53889;50.084;8.646;2024-03-23T14:37:07;9.40;99.90
54846;DHT22;53889;50.084;8.646;2024-03-23T14:39:34;9.40;99.90
54846;DHT22;53889;50.084;8.646;2024-03-23T14:42:01;9.40;99.90
54846;DHT22;53889;50.084;8.646;2024-03-23T14:44:28;9.30;99.90
54846;DHT22;53889;50.084;8.646;2024-03-23T14:46:54;9.30;99.90
54846;DHT22;53889;50.084;8.646;2024-03-23T14:49:21;9.30;99.90
54846;DHT22;53889;50.084;8.646;2024-03-23T14:51:46;9.40;99.90
54846;DHT22;53889;50.084;8.646;2024-03-23T14:54:13;9.40;99.90
54846;DHT22;53889;50.084;8.646;2024-03-23T14:56:39;10.50;99.90
54846;DHT22;53889;50.084;8.646;2024-03-23T14:59:07;9.30;99.90
54846;DHT22;53889;50.084;8.646;2024-03-23T15:01:33;9.30;99.90
54846;DHT22;53889;50.084;8.646;2024-03-23T15:04:00;9.30;99.90
54846;DHT22;53889;50.084;8.646;2024-03-23T15:06:26;9.40;99.90
54846;DHT22;53889;50.084;8.646;2024-03-23T15:08:52;9.50;99.90
54846;DHT22;53889;50.084;8.646;2024-03-23T15:11:19;9.60;99.90
54846;DHT22;53889;50.084;8.646;2024-03-23T15:13:49;9.70;99.90
54846;DHT22;53889;50.084;8.646;2024-03-23T15:16:18;9.80;99.90
54846;DHT22;53889;50.084;8.646;2024-03-23T15:18:45;10.00;99.90
54846;DHT22;53889;50.084;8.646;2024-03-23T15:21:11;10.00;99.90
54846;DHT22;53889;50.084;8.646;2024-03-23T15:23:40;10.10;99.90
54846;DHT22;53889;50.084;8.646;2024-03-23T15:26:09;10.10;99.90
54846;DHT22;53889;50.084;8.646;2024-03-23T15:28:36;10.10;99.90
54846;DHT22;53889;50.084;8.646;2024-03-23T15:31:08;10.10;99.90
54846;DHT22;53889;50.084;8.646;2024-03-23T15:33:37;10.10;99.90
54846;DHT22;53889;50.084;8.646;2024-03-23T15:36:03;10.20;99.90
54846;DHT22;53889;50.084;8.646;2024-03-23T15:38:31;10.10;97.60
54846;DHT22;53889;50.084;8.646;2024-03-23T15:40:57;9.90;98.10
54846;DHT22;53889;50.084;8.646;2024-03-23T15:43:24;9.90;98.80
54846;DHT22;53889;50.084;8.646;2024-03-23T15:45:57;10.00;99.30
54846;DHT22;53889;50.084;8.646;2024-03-23T15:48:25;9.50;99.40
54846;DHT22;53889;50.084;8.646;2024-03-23T15:50:54;8.80;99.80
54846;DHT22;53889;50.084;8.646;2024-03-23T15:53:22;8.30;99.90
54846;DHT22;53889;50.084;8.646;2024-03-23T15:55:53;8.00;99.90
54846;DHT22;53889;50.084;8.646;2024-03-23T15:58:20;7.90;99.90
54846;DHT22;53889;50.084;8.646;2024-03-23T16:00:46;8.00;99.90
54846;DHT22;53889;50.084;8.646;2024-03-23T16:03:20;8.20;99.90
54846;DHT22;53889;50.084;8.646;2024-03-23T16:05:50;8.30;99.90
54846;DHT22;53889;50.084;8.646;2024-03-23T16:08:18;9.50;99.90
54846;DHT22;53889;50.084;8.646;2024-03-23T16:10:44;8.10;99.90
54846;DHT22;53889;50.084;8.646;2024-03-23T16:13:11;8.20;99.90
54846;DHT22;53889;50.084;8.646;2024-03-23T16:15:40;8.60;99.90
54846;DHT22;53889;50.084;8.646;2024-03-23T16:18:07;8.10;99.90
54846;DHT22;53889;50.084;8.646;2024-03-23T16:20:34;6.30;99.90
54846;DHT22;53889;50.084;8.646;2024-03-23T16:23:01;7.80;99.90
54846;DHT22;53889;50.084;8.646;2024-03-23T16:25:28;7.90;99.90
54846;DHT22;53889;50.084;8.646;2024-03-23T16:27:56;8.80;99.90
54846;DHT22;53889;50.084;8.646;2024-03-23T16:35:58;8.20;99.60
54846;DHT22;53889;50.084;8.646;2024-03-23T16:38:25;6.30;99.60
54846;DHT22;53889;50.084;8.646;2024-03-23T16:40:59;9.10;99.90
54846;DHT22;53889;50.084;8.646;2024-03-23T16:43:27;7.60;99.90
54846;DHT22;53889;50.084;8.646;2024-03-23T16:45:54;8.10;99.90
54846;DHT22;53889;50.084;8.646;2024-03-23T16:48:22;8.10;99.90
54846;DHT22;53889;50.084;8.646;2024-03-23T16:50:48;8.50;99.90
54846;DHT22;53889;50.084;8.646;2024-03-23T16:53:15;8.00;99.90
54846;DHT22;53889;50.084;8.646;2024-03-23T16:55:42;8.00;99.90
54846;DHT22;53889;50.084;8.646;2024-03-23T16:58:12;8.10;99.90
54846;DHT22;53889;50.084;8.646;2024-03-23T17:05:20;7.30;99.90
54846;DHT22;53889;50.084;8.646;2024-03-23T17:07:48;8.00;99.90
54846;DHT22;53889;50.084;8.646;2024-03-23T17:10:14;8.00;99.90
54846;DHT22;53889;50.084;8.646;2024-03-23T17:12:41;8.10;99.90
54846;DHT22;53889;50.084;8.646;2024-03-23T17:15:12;8.00;99.90
54846;DHT22;53889;50.084;8.646;2024-03-23T17:17:40;8.00;99.90
54846;DHT22;53889;50.084;8.646;2024-03-23T17:20:07;8.00;99.90
54846;DHT22;53889;50.084;8.646;2024-03-23T17:22:35;8.00;99.60
54846;DHT22;53889;50.084;8.646;2024-03-23T17:25:02;9.00;99.90
54846;DHT22;53889;50.084;8.646;2024-03-23T17:27:30;6.40;99.60
54846;DHT22;53889;50.084;8.646;2024-03-23T17:29:59;8.50;99.90
54846;DHT22;53889;50.084;8.646;2024-03-23T17:32:28;8.30;99.90
54846;DHT22;53889;50.084;8.646;2024-03-23T17:34:57;8.10;99.90
54846;DHT22;53889;50.084;8.646;2024-03-23T17:37:24;7.70;99.90
54846;DHT22;53889;50.084;8.646;2024-03-23T17:39:50;8.60;99.90
54846;DHT22;53889;50.084;8.646;2024-03-23T17:42:18;7.80;99.90
54846;DHT22;53889;50.084;8.646;2024-03-23T17:44:51;7.80;99.80
54846;DHT22;53889;50.084;8.646;2024-03-23T17:47:19;7.90;99.90
54846;DHT22;53889;50.084;8.646;2024-03-23T17:49:48;8.00;99.10
54846;DHT22;53889;50.084;8.646;2024-03-23T17:52:18;7.90;99.00
54846;DHT22;53889;50.084;8.646;2024-03-23T17:54:44;7.50;99.90
54846;DHT22;53889;50.084;8.646;2024-03-23T17:57:12;7.10;99.90
54846;DHT22;53889;50.084;8.646;2024-03-23T17:59:38;7.00;99.90
54846;DHT22;53889;50.084;8.646;2024-03-23T18:02:05;6.60;99.90
54846;DHT22;53889;50.084;8.646;2024-03-23T18:04:30;6.40;99.90
54846;DHT22;53889;50.084;8.646;2024-03-23T18:06:58;6.40;99.90
54846;DHT22;53889;50.084;8.646;2024-03-23T18:09:24;6.50;99.90
54846;DHT22;53889;50.084;8.646;2024-03-23T18:11:51;6.60;99.90
54846;DHT22;53889;50.084;8.646;2024-03-23T18:14:18;6.60;99.90
54846;DHT22;53889;50.084;8.646;2024-03-23T18:16:45;6.50;99.90
54846;DHT22;53889;50.084;8.646;2024-03-23T18:19:10;6.40;99.90
54846;DHT22;53889;50.084;8.646;2024-03-23T18:21:37;6.40;99.90
54846;DHT22;53889;50.084;8.646;2024-03-23T18:24:05;6.40;99.90
54846;DHT22;53889;50.084;8.646;2024-03-23T18:26:32;6.50;99.90
54846;DHT22;53889;50.084;8.646;2024-03-23T18:28:58;6.50;99.90
54846;DHT22;53889;50.084;8.646;2024-03-23T18:31:24;6.50;99.90
54846;DHT22;53889;50.084;8.646;2024-03-23T18:33:50;7.00;99.90